Time;durP1;ratioP1;P1;durP2;ratioP2;P2;SDS_P1;SDS_P2;PMS_P1;PMS_P2;Temp;Humidity;BMP_temperature;BMP_pressure;BME280_temperature;BME280_humidity;BME280_pressure;Samples;Min_cycle;Max_cycle;Signal;HPM_P1;HPM_P2
2021/10/15 00:00:29;;;;;;;21.02;15.35;;;;;;;;;;5072084;28;20060;-67
2021/10/15 00:03:14;;;;;;;19.02;16.05;;;;;;;;;;5072324;28;20048;-67
2021/10/15 00:06:00;;;;;;;20.17;16.55;;;;;;;;;;5072188;28;20045;-67
2021/10/15 00:08:45;;;;;;;24.02;16.90;;;;;;;;;;5072088;28;20082;-66
2021/10/15 00:11:30;;;;;;;23.63;18.10;;;;;;;;;;5072216;28;20128;-67
2021/10/15 00:14:16;;;;;;;24.15;18.05;;;;;;;;;;5071988;28;20084;-66
2021/10/15 00:17:01;;;;;;;22.60;18.60;;;;;;;;;;5072005;28;20056;-67
2021/10/15 00:19:46;;;;;;;25.33;19.25;;;;;;;;;;5072090;28;20049;-67
2021/10/15 00:22:32;;;;;;;26.58;20.08;;;;;;;;;;5072088;28;20052;-66
2021/10/15 00:25:17;;;;;;;26.40;21.17;;;;;;;;;;5071726;28;20045;-67
2021/10/15 00:28:02;;;;;;;25.92;22.88;;;;;;;;;;5072045;28;20053;-67
2021/10/15 00:30:48;;;;;;;28.10;23.23;;;;;;;;;;5072020;28;20064;-66
2021/10/15 00:33:33;;;;;;;27.25;22.25;;;;;;;;;;5071502;28;20056;-67
2021/10/15 00:36:18;;;;;;;25.05;21.48;;;;;;;;;;5072028;28;20434;-67
2021/10/15 00:39:04;;;;;;;25.17;21.42;;;;;;;;;;5071851;28;20048;-67
2021/10/15 00:41:49;;;;;;;28.20;22.23;;;;;;;;;;5075608;28;20048;-67
2021/10/15 00:44:37;;;;;;;25.15;21.73;;;;;;;;;;5075470;28;20090;-67
2021/10/15 00:47:22;;;;;;;22.60;20.30;;;;;;;;;;5075961;28;20123;-67
2021/10/15 00:50:08;;;;;;;25.02;20.80;;;;;;;;;;5075752;28;20530;-66
2021/10/15 00:52:53;;;;;;;23.80;21.08;;;;;;;;;;5075890;28;20127;-67
2021/10/15 00:55:38;;;;;;;24.58;20.48;;;;;;;;;;5060458;28;20094;-66
2021/10/15 00:58:23;;;;;;;24.17;21.58;;;;;;;;;;5075645;28;20056;-67
2021/10/15 01:01:08;;;;;;;23.88;21.00;;;;;;;;;;5075688;28;20056;-67
2021/10/15 01:03:54;;;;;;;27.33;22.50;;;;;;;;;;5075295;28;20048;-67
2021/10/15 01:06:39;;;;;;;27.50;21.70;;;;;;;;;;5075453;28;20044;-67
2021/10/15 01:09:24;;;;;;;31.83;22.98;;;;;;;;;;5075580;28;20052;-66
2021/10/15 01:12:10;;;;;;;29.70;25.17;;;;;;;;;;5075408;28;20061;-67
2021/10/15 01:14:55;;;;;;;29.83;24.83;;;;;;;;;;5074997;28;20060;-67
2021/10/15 01:17:41;;;;;;;30.98;24.83;;;;;;;;;;5075235;28;20521;-67
2021/10/15 01:20:26;;;;;;;28.77;25.45;;;;;;;;;;5075239;28;20048;-67
2021/10/15 01:23:11;;;;;;;29.25;25.92;;;;;;;;;;5075086;28;20056;-67
2021/10/15 01:25:57;;;;;;;29.67;26.48;;;;;;;;;;5075256;28;20045;-66
2021/10/15 01:28:42;;;;;;;35.45;27.52;;;;;;;;;;5075168;28;20119;-67
2021/10/15 01:31:27;;;;;;;31.23;26.75;;;;;;;;;;5075014;28;20065;-67
2021/10/15 01:34:13;;;;;;;32.08;28.20;;;;;;;;;;5074525;28;20056;-67
2021/10/15 01:36:58;;;;;;;36.38;28.05;;;;;;;;;;5075022;28;20204;-67
2021/10/15 01:39:43;;;;;;;33.45;28.95;;;;;;;;;;5074817;28;20045;-67
2021/10/15 01:45:33;;;;;;;40.75;29.83;;;;;;;;;;5074570;28;20446;-67
2021/10/15 01:48:18;;;;;;;35.83;28.95;;;;;;;;;;5074787;28;20060;-67
2021/10/15 01:51:04;;;;;;;35.13;30.17;;;;;;;;;;5074233;28;20060;-67
2021/10/15 01:53:49;;;;;;;36.20;29.80;;;;;;;;;;5073965;28;20052;-66
2021/10/15 01:56:37;;;;;;;35.40;30.77;;;;;;;;;;5074551;28;20052;-67
2021/10/15 01:59:22;;;;;;;40.47;31.58;;;;;;;;;;5074608;28;20053;-67
2021/10/15 02:02:07;;;;;;;34.38;30.67;;;;;;;;;;5074550;28;20052;-66
2021/10/15 02:04:54;;;;;;;38.45;30.15;;;;;;;;;;5074096;28;20123;-67
2021/10/15 02:07:39;;;;;;;37.65;30.25;;;;;;;;;;5074540;28;20052;-67
2021/10/15 02:10:24;;;;;;;39.03;29.70;;;;;;;;;;5074398;28;20052;-67
2021/10/15 02:13:10;;;;;;;36.75;29.98;;;;;;;;;;5074203;28;20052;-66
2021/10/15 02:15:55;;;;;;;34.47;29.10;;;;;;;;;;5074398;28;20056;-67
2021/10/15 02:18:40;;;;;;;31.85;27.23;;;;;;;;;;5074067;28;20569;-66
2021/10/15 02:21:25;;;;;;;32.28;25.13;;;;;;;;;;5073154;28;20048;-66
2021/10/15 02:24:11;;;;;;;30.13;25.10;;;;;;;;;;5072796;28;20123;-67
2021/10/15 02:26:56;;;;;;;34.55;26.52;;;;;;;;;;5074123;28;20056;-66
2021/10/15 02:29:41;;;;;;;31.85;27.17;;;;;;;;;;5073986;28;20053;-67
2021/10/15 02:32:27;;;;;;;31.70;23.55;;;;;;;;;;5073851;28;20131;-67
2021/10/15 02:35:13;;;;;;;37.10;25.67;;;;;;;;;;5073741;28;20123;-67
2021/10/15 02:38:01;;;;;;;32.83;24.48;;;;;;;;;;5073827;28;20056;-67
2021/10/15 02:40:46;;;;;;;33.72;24.60;;;;;;;;;;5073658;28;20132;-67
2021/10/15 02:43:31;;;;;;;28.23;22.42;;;;;;;;;;5073732;28;20044;-66
2021/10/15 02:46:17;;;;;;;25.63;22.48;;;;;;;;;;5073717;28;20052;-67
2021/10/15 02:49:03;;;;;;;27.17;21.77;;;;;;;;;;5073463;28;20061;-67
2021/10/15 02:51:47;;;;;;;35.08;22.10;;;;;;;;;;5073436;28;20498;-66
2021/10/15 02:54:33;;;;;;;28.52;21.65;;;;;;;;;;5073136;28;20057;-66
2021/10/15 02:57:18;;;;;;;27.85;22.25;;;;;;;;;;5073278;28;20510;-66
2021/10/15 03:00:04;;;;;;;26.98;19.08;;;;;;;;;;5073192;28;20049;-66
2021/10/15 03:02:49;;;;;;;22.60;19.05;;;;;;;;;;5072872;28;20091;-67
2021/10/15 03:05:34;;;;;;;26.10;19.02;;;;;;;;;;5072932;28;20053;-67
2021/10/15 03:08:20;;;;;;;24.98;17.65;;;;;;;;;;5073269;28;20056;-66
2021/10/15 03:11:05;;;;;;;28.67;16.85;;;;;;;;;;5073119;28;20056;-66
2021/10/15 03:13:50;;;;;;;27.08;17.00;;;;;;;;;;5072746;28;20056;-67
2021/10/15 03:16:36;;;;;;;23.92;16.05;;;;;;;;;;5072924;28;20052;-67
2021/10/15 03:19:21;;;;;;;22.83;16.13;;;;;;;;;;5073093;28;20056;-66
2021/10/15 03:22:06;;;;;;;31.90;17.98;;;;;;;;;;5072885;28;20064;-66
2021/10/15 03:24:51;;;;;;;23.17;14.90;;;;;;;;;;5072732;28;20060;-67
2021/10/15 03:27:37;;;;;;;23.33;16.30;;;;;;;;;;5072852;28;20053;-66
2021/10/15 03:30:22;;;;;;;21.60;15.05;;;;;;;;;;5072722;28;20056;-66
2021/10/15 03:33:07;;;;;;;23.17;15.43;;;;;;;;;;5072601;28;20132;-67
2021/10/15 03:35:53;;;;;;;22.60;15.93;;;;;;;;;;5072753;28;20052;-66
2021/10/15 03:38:38;;;;;;;23.50;16.52;;;;;;;;;;5072609;28;20049;-67
2021/10/15 03:41:23;;;;;;;22.20;14.73;;;;;;;;;;5072379;28;20056;-66
2021/10/15 03:44:08;;;;;;;25.52;15.55;;;;;;;;;;5072146;28;20418;-66
2021/10/15 03:46:54;;;;;;;26.80;15.20;;;;;;;;;;5072532;28;20048;-67
2021/10/15 03:49:39;;;;;;;23.92;15.85;;;;;;;;;;5072355;28;20052;-66
2021/10/15 03:52:24;;;;;;;24.40;13.98;;;;;;;;;;5072414;28;20486;-66
2021/10/15 03:55:10;;;;;;;17.55;13.65;;;;;;;;;;5072157;28;20048;-66
2021/10/15 03:57:55;;;;;;;22.00;14.25;;;;;;;;;;5072284;28;20056;-66
2021/10/15 04:00:41;;;;;;;16.17;11.55;;;;;;;;;;5072100;28;20502;-67
2021/10/15 04:03:26;;;;;;;19.02;11.38;;;;;;;;;;5072012;28;20052;-68
2021/10/15 04:06:11;;;;;;;17.55;10.98;;;;;;;;;;5072113;28;20048;-66
2021/10/15 04:08:57;;;;;;;19.73;11.40;;;;;;;;;;5072279;28;20048;-67
2021/10/15 04:11:42;;;;;;;23.70;11.35;;;;;;;;;;5072201;28;20569;-67
2021/10/15 04:14:28;;;;;;;21.02;11.45;;;;;;;;;;5070982;28;20123;-66
2021/10/15 04:17:13;;;;;;;21.23;10.75;;;;;;;;;;5072219;28;20049;-66
2021/10/15 04:19:58;;;;;;;18.73;10.00;;;;;;;;;;5071898;28;20648;-66
2021/10/15 04:22:44;;;;;;;21.38;10.00;;;;;;;;;;5071847;28;20049;-67
2021/10/15 04:25:29;;;;;;;22.95;10.90;;;;;;;;;;5071957;28;20224;-67
2021/10/15 04:28:16;;;;;;;19.83;9.15;;;;;;;;;;5072019;28;20044;-66
2021/10/15 04:31:02;;;;;;;17.52;8.85;;;;;;;;;;5071833;28;20052;-67
2021/10/15 04:33:47;;;;;;;13.57;7.95;;;;;;;;;;5071531;28;20752;-68
2021/10/15 04:36:32;;;;;;;12.80;8.35;;;;;;;;;;5071914;28;20048;-67
2021/10/15 04:39:18;;;;;;;17.35;8.80;;;;;;;;;;5071842;28;20127;-67
2021/10/15 04:42:03;;;;;;;22.17;8.70;;;;;;;;;;5071916;28;20048;-67
2021/10/15 04:44:49;;;;;;;14.77;8.35;;;;;;;;;;5071405;28;20049;-67
2021/10/15 04:47:34;;;;;;;18.73;9.85;;;;;;;;;;5071841;28;20049;-67
2021/10/15 04:50:20;;;;;;;22.08;9.52;;;;;;;;;;5071631;28;20507;-67
2021/10/15 04:53:05;;;;;;;23.00;11.98;;;;;;;;;;5071755;28;20119;-66
2021/10/15 04:55:50;;;;;;;26.38;13.45;;;;;;;;;;5071622;28;20060;-66
2021/10/15 04:58:35;;;;;;;24.08;11.15;;;;;;;;;;5071866;28;20082;-67
2021/10/15 05:01:22;;;;;;;29.35;11.30;;;;;;;;;;5071334;28;20494;-67
2021/10/15 05:04:07;;;;;;;23.23;12.10;;;;;;;;;;5056524;28;20131;-67
2021/10/15 05:06:57;;;;;;;18.95;11.23;;;;;;;;;;5071708;28;20052;-66
2021/10/15 05:09:43;;;;;;;20.40;9.85;;;;;;;;;;5071704;28;20518;-66
2021/10/15 05:12:28;;;;;;;21.80;9.60;;;;;;;;;;5071564;28;20052;-66
2021/10/15 05:15:13;;;;;;;19.10;9.70;;;;;;;;;;5071214;28;20770;-66
2021/10/15 05:17:58;;;;;;;16.80;8.82;;;;;;;;;;5071628;28;20052;-66
2021/10/15 05:20:44;;;;;;;20.20;8.00;;;;;;;;;;5071328;28;20084;-66
2021/10/15 05:23:29;;;;;;;17.23;8.35;;;;;;;;;;5071075;28;20049;-66
2021/10/15 05:26:14;;;;;;;12.35;7.85;;;;;;;;;;5072562;28;20064;-67
2021/10/15 05:28:59;;;;;;;16.17;8.15;;;;;;;;;;5075077;28;20131;-66
2021/10/15 05:31:45;;;;;;;13.57;7.47;;;;;;;;;;5074988;28;20056;-66
2021/10/15 05:34:30;;;;;;;9.63;6.68;;;;;;;;;;5074781;28;20449;-67
2021/10/15 05:37:16;;;;;;;5.50;2.70;;;;;;;;;;5075014;28;20127;-65
2021/10/15 05:40:01;;;;;;;2.30;0.75;;;;;;;;;;5074701;28;20057;-66
2021/10/15 05:42:46;;;;;;;0.73;0.20;;;;;;;;;;5074797;28;20053;-66
2021/10/15 05:45:32;;;;;;;0.50;0.22;;;;;;;;;;5074644;28;20048;-66
2021/10/15 05:48:17;;;;;;;3.17;0.90;;;;;;;;;;5074699;28;20049;-66
2021/10/15 05:51:03;;;;;;;1.73;0.75;;;;;;;;;;5074814;28;20060;-66
2021/10/15 05:53:50;;;;;;;1.95;1.05;;;;;;;;;;5074369;28;20084;-66
2021/10/15 05:59:20;;;;;;;2.38;0.60;;;;;;;;;;5074673;28;20060;-66
2021/10/15 06:02:07;;;;;;;6.07;0.40;;;;;;;;;;5074481;28;20048;-66
2021/10/15 06:14:16;;;;;;;5.28;0.73;;;;;;;;;;5074032;28;20049;-66
2021/10/15 06:17:12;;;;;;;6.18;1.05;;;;;;;;;;5074165;28;20048;-66
2021/10/15 06:19:57;;;;;;;8.27;0.70;;;;;;;;;;5074278;28;20053;-67
2021/10/15 06:22:42;;;;;;;10.10;1.38;;;;;;;;;;5074000;28;20514;-66
2021/10/15 06:25:27;;;;;;;8.40;1.00;;;;;;;;;;5073837;28;20056;-66
2021/10/15 06:28:13;;;;;;;4.50;1.00;;;;;;;;;;5074215;28;20119;-66
2021/10/15 06:30:58;;;;;;;13.85;1.63;;;;;;;;;;5074040;28;20044;-65
2021/10/15 06:33:43;;;;;;;9.75;1.20;;;;;;;;;;5073211;28;20053;-66
2021/10/15 06:36:28;;;;;;;9.75;1.58;;;;;;;;;;5074078;28;20410;-66
2021/10/15 06:39:14;;;;;;;9.70;1.30;;;;;;;;;;5073103;28;20053;-66
2021/10/15 06:41:59;;;;;;;9.00;1.02;;;;;;;;;;5073801;28;20414;-66
2021/10/15 06:44:44;;;;;;;6.38;1.02;;;;;;;;;;5073263;28;20052;-66
2021/10/15 06:47:30;;;;;;;5.28;1.00;;;;;;;;;;5073763;28;20461;-66
2021/10/15 06:50:15;;;;;;;8.13;1.40;;;;;;;;;;5073491;28;20048;-66
2021/10/15 06:53:01;;;;;;;12.00;1.50;;;;;;;;;;5073388;28;20048;-66
2021/10/15 06:55:47;;;;;;;12.20;1.70;;;;;;;;;;5073318;28;20060;-67
2021/10/15 06:58:34;;;;;;;10.55;1.17;;;;;;;;;;5073492;28;20040;-66
2021/10/15 07:01:19;;;;;;;9.80;1.15;;;;;;;;;;5073186;28;20087;-66
2021/10/15 07:04:05;;;;;;;10.85;1.30;;;;;;;;;;5073061;28;20052;-66
2021/10/15 07:06:50;;;;;;;9.02;1.40;;;;;;;;;;5073287;28;20080;-67
2021/10/15 07:09:35;;;;;;;9.98;1.23;;;;;;;;;;5073222;28;20049;-66
2021/10/15 07:12:21;;;;;;;8.27;1.95;;;;;;;;;;5073246;28;20399;-66
2021/10/15 07:15:06;;;;;;;10.75;1.27;;;;;;;;;;5072947;28;20048;-66
2021/10/15 07:17:51;;;;;;;9.05;1.23;;;;;;;;;;5072947;28;20052;-65
2021/10/15 07:20:37;;;;;;;9.95;1.25;;;;;;;;;;5073046;28;20048;-66
2021/10/15 07:23:22;;;;;;;6.28;1.23;;;;;;;;;;5072934;28;20052;-65
2021/10/15 07:26:10;;;;;;;6.75;1.10;;;;;;;;;;5072807;28;20419;-66
2021/10/15 07:28:55;;;;;;;6.57;1.23;;;;;;;;;;5075636;28;20048;-66
2021/10/15 07:31:40;;;;;;;6.38;1.00;;;;;;;;;;5086220;28;20127;-66
2021/10/15 07:34:25;;;;;;;7.65;1.10;;;;;;;;;;5092612;28;20048;-66
2021/10/15 07:37:11;;;;;;;6.75;1.40;;;;;;;;;;5093141;28;20059;-67
2021/10/15 07:39:56;;;;;;;5.80;1.02;;;;;;;;;;5092817;28;20052;-66
2021/10/15 07:42:41;;;;;;;11.73;1.40;;;;;;;;;;5092664;28;20051;-66
2021/10/15 07:45:28;;;;;;;6.13;1.27;;;;;;;;;;5092543;28;20056;-66
2021/10/15 07:48:13;;;;;;;8.90;1.00;;;;;;;;;;5092626;28;20505;-67
2021/10/15 07:50:58;;;;;;;7.80;1.23;;;;;;;;;;5092636;28;20052;-66
2021/10/15 07:53:44;;;;;;;9.35;2.05;;;;;;;;;;5092673;28;20055;-66
2021/10/15 07:56:32;;;;;;;6.85;1.38;;;;;;;;;;5092886;28;20098;-66
2021/10/15 07:59:17;;;;;;;7.22;1.80;;;;;;;;;;5092513;28;20506;-66
2021/10/15 08:02:03;;;;;;;6.25;1.38;;;;;;;;;;5092597;28;20414;-66
2021/10/15 08:04:48;;;;;;;6.65;1.23;;;;;;;;;;5092230;28;20123;-66
2021/10/15 08:07:33;;;;;;;8.15;1.60;;;;;;;;;;5092433;28;20048;-67
2021/10/15 08:10:19;;;;;;;8.00;1.67;;;;;;;;;;5092644;28;20123;-66
2021/10/15 08:13:04;;;;;;;12.30;1.85;;;;;;;;;;5092411;28;20469;-66
2021/10/15 08:15:49;;;;;;;6.45;1.25;;;;;;;;;;5092109;28;20056;-67
2021/10/15 08:18:35;;;;;;;7.07;1.13;;;;;;;;;;5092481;28;20048;-67
2021/10/15 08:21:20;;;;;;;4.70;1.10;;;;;;;;;;5092274;28;20073;-67
2021/10/15 08:24:05;;;;;;;9.38;1.58;;;;;;;;;;5091980;28;20052;-66
2021/10/15 08:26:51;;;;;;;16.27;2.00;;;;;;;;;;5081027;28;20449;-66
2021/10/15 08:29:40;;;;;;;10.07;1.17;;;;;;;;;;5082299;28;20048;-66
2021/10/15 08:32:26;;;;;;;6.32;1.55;;;;;;;;;;5079194;28;20057;-66
2021/10/15 08:35:10;;;;;;;8.05;1.00;;;;;;;;;;5080437;28;20052;-66
2021/10/15 08:37:57;;;;;;;10.48;1.25;;;;;;;;;;5082162;28;20059;-66
2021/10/15 08:40:42;;;;;;;10.75;1.50;;;;;;;;;;5071874;28;20052;-66
2021/10/15 08:43:40;;;;;;;8.90;1.55;;;;;;;;;;5113390;22;20052;-68
2021/10/15 08:46:25;;;;;;;6.63;1.40;;;;;;;;;;5071793;28;20080;-68
2021/10/15 08:49:11;;;;;;;10.57;1.40;;;;;;;;;;5071802;28;20406;-69
2021/10/15 08:51:56;;;;;;;9.77;1.52;;;;;;;;;;5071905;28;20127;-67
2021/10/15 08:54:45;;;;;;;9.80;2.05;;;;;;;;;;5057859;28;20048;-68
2021/10/15 08:57:31;;;;;;;6.18;1.25;;;;;;;;;;5051687;28;20103;-67
2021/10/15 09:00:32;;;;;;;7.32;1.75;;;;;;;;;;5051473;28;20057;-68
2021/10/15 09:03:23;;;;;;;5.90;1.02;;;;;;;;;;5054304;28;20068;-68
2021/10/15 09:06:09;;;;;;;8.07;1.75;;;;;;;;;;5055563;28;20483;-68
2021/10/15 09:08:56;;;;;;;8.32;1.27;;;;;;;;;;5054542;28;20461;-68
2021/10/15 09:11:45;;;;;;;7.38;1.23;;;;;;;;;;5055490;28;20110;-66
2021/10/15 09:14:30;;;;;;;8.38;1.38;;;;;;;;;;5055053;28;20052;-67
2021/10/15 09:17:17;;;;;;;8.23;1.17;;;;;;;;;;5055448;28;20053;-67
2021/10/15 09:20:03;;;;;;;9.85;1.85;;;;;;;;;;5055427;28;20052;-67
2021/10/15 09:22:48;;;;;;;9.48;2.20;;;;;;;;;;5053658;28;20491;-67
2021/10/15 09:25:34;;;;;;;8.25;1.60;;;;;;;;;;5053575;28;20127;-67
2021/10/15 09:28:20;;;;;;;12.65;1.58;;;;;;;;;;5039944;28;20057;-65
2021/10/15 09:31:05;;;;;;;8.25;1.25;;;;;;;;;;5054779;28;20499;-64
2021/10/15 09:33:56;;;;;;;408.27;75.30;;;;;;;;;;5053762;28;20047;-63
2021/10/15 09:36:48;;;;;;;9.02;1.38;;;;;;;;;;5055098;28;20499;-64
2021/10/15 09:39:34;;;;;;;10.77;2.35;;;;;;;;;;5054909;28;20045;-63
2021/10/15 09:42:20;;;;;;;105.03;29.20;;;;;;;;;;5055005;28;20048;-63
2021/10/15 09:45:05;;;;;;;17.20;2.20;;;;;;;;;;5053395;28;20045;-64
2021/10/15 09:47:54;;;;;;;7.05;1.55;;;;;;;;;;5054762;28;20041;-64
2021/10/15 09:50:39;;;;;;;9.40;2.03;;;;;;;;;;5055006;28;20045;-66
2021/10/15 09:53:24;;;;;;;10.63;2.10;;;;;;;;;;5054845;28;20470;-65
2021/10/15 09:56:10;;;;;;;51.95;32.53;;;;;;;;;;5054634;28;20657;-66
2021/10/15 09:58:55;;;;;;;14.38;2.78;;;;;;;;;;5054704;28;20514;-66
2021/10/15 10:01:41;;;;;;;12.88;2.45;;;;;;;;;;5053873;28;20049;-66
2021/10/15 10:04:26;;;;;;;13.85;2.63;;;;;;;;;;5054333;28;20087;-66
2021/10/15 10:07:11;;;;;;;12.07;2.63;;;;;;;;;;5053405;28;20410;-67
2021/10/15 10:09:57;;;;;;;13.88;2.60;;;;;;;;;;5053636;28;20136;-66
2021/10/15 10:12:42;;;;;;;11.70;2.42;;;;;;;;;;5053053;28;20166;-66
2021/10/15 10:15:28;;;;;;;14.55;2.72;;;;;;;;;;5054277;28;20056;-67
2021/10/15 10:18:39;;;;;;;1999.90;999.90;;;;;;;;;;5054408;28;20056;-67
2021/10/15 10:21:27;;;;;;;15.40;9.90;;;;;;;;;;5054206;28;20415;-66
2021/10/15 10:24:14;;;;;;;1999.90;999.90;;;;;;;;;;5053007;28;20061;-66
2021/10/15 10:27:00;;;;;;;1999.90;999.90;;;;;;;;;;5053415;28;20088;-65
2021/10/15 10:29:52;;;;;;;18.75;14.45;;;;;;;;;;5054130;28;20045;-65
2021/10/15 10:32:37;;;;;;;20.88;16.30;;;;;;;;;;5054129;28;20099;-65
2021/10/15 10:35:24;;;;;;;1999.90;999.90;;;;;;;;;;5053662;28;20057;-64
2021/10/15 10:38:23;;;;;;;1999.90;999.90;;;;;;;;;;5054096;28;20597;-65
2021/10/15 10:41:08;;;;;;;1999.90;999.90;;;;;;;;;;5053742;28;20053;-65
2021/10/15 10:43:53;;;;;;;1999.90;999.90;;;;;;;;;;5053297;28;20049;-65
2021/10/15 10:46:38;;;;;;;1999.90;999.90;;;;;;;;;;5053935;28;20052;-65
2021/10/15 10:49:24;;;;;;;1999.90;999.90;;;;;;;;;;5053771;28;20056;-64
2021/10/15 10:52:10;;;;;;;1999.90;999.90;;;;;;;;;;5053609;28;20135;-65
2021/10/15 10:54:55;;;;;;;1999.90;999.90;;;;;;;;;;5053355;28;20135;-64
2021/10/15 10:57:41;;;;;;;1999.90;999.90;;;;;;;;;;5053603;28;20061;-65
2021/10/15 11:00:29;;;;;;;1999.90;999.90;;;;;;;;;;5053536;28;20057;-65
2021/10/15 11:03:14;;;;;;;1999.90;999.90;;;;;;;;;;5053526;28;20124;-65
2021/10/15 11:05:59;;;;;;;1999.90;999.90;;;;;;;;;;5052239;28;20049;-65
2021/10/15 11:08:46;;;;;;;1999.90;999.90;;;;;;;;;;5052241;28;20511;-65
2021/10/15 11:11:37;;;;;;;1999.90;999.90;;;;;;;;;;5053374;28;20052;-65
2021/10/15 11:14:23;;;;;;;1999.90;999.90;;;;;;;;;;5052923;28;20057;-65
2021/10/15 11:17:11;;;;;;;26.00;23.63;;;;;;;;;;5052661;28;20061;-69
2021/10/15 11:20:12;;;;;;;17.92;13.38;;;;;;;;;;5053189;28;20142;-68
2021/10/15 11:23:06;;;;;;;36.85;32.22;;;;;;;;;;5051748;28;20053;-68
2021/10/15 11:25:52;;;;;;;210.48;67.82;;;;;;;;;;5051722;28;20049;-70
2021/10/15 11:28:37;;;;;;;94.30;78.70;;;;;;;;;;5051514;28;20049;-69
2021/10/15 11:31:22;;;;;;;18.80;16.33;;;;;;;;;;5052688;28;20068;-67
2021/10/15 11:34:08;;;;;;;15.55;8.65;;;;;;;;;;5052314;28;20538;-68
2021/10/15 11:37:03;;;;;;;67.18;56.03;;;;;;;;;;5055427;28;20116;-68
2021/10/15 11:39:48;;;;;;;67.22;61.58;;;;;;;;;;5051630;28;20052;-68
2021/10/15 11:42:34;;;;;;;165.15;110.63;;;;;;;;;;5051471;28;20123;-68
2021/10/15 11:45:29;;;;;;;623.97;455.33;;;;;;;;;;5052198;28;20049;-68
2021/10/15 11:48:16;;;;;;;1999.90;999.90;;;;;;;;;;5052575;28;20124;-68
2021/10/15 11:51:02;;;;;;;252.82;59.45;;;;;;;;;;5052433;28;20499;-68
2021/10/15 11:53:51;;;;;;;13.52;2.22;;;;;;;;;;5050882;28;20048;-68
2021/10/15 11:56:36;;;;;;;17.13;3.05;;;;;;;;;;5046624;28;20049;-68
2021/10/15 11:59:23;;;;;;;9.43;2.22;;;;;;;;;;5047713;28;20057;-68
2021/10/15 12:02:09;;;;;;;18.52;3.05;;;;;;;;;;5030267;28;20068;-68
2021/10/15 12:04:57;;;;;;;12.05;3.85;;;;;;;;;;5043255;28;20056;-69
2021/10/15 12:07:42;;;;;;;15.77;2.55;;;;;;;;;;5051209;28;20052;-69
2021/10/15 12:10:29;;;;;;;12.18;2.08;;;;;;;;;;5035338;28;20053;-69
2021/10/15 12:13:15;;;;;;;9.85;2.78;;;;;;;;;;5049282;28;20052;-69
2021/10/15 12:16:00;;;;;;;7.65;2.38;;;;;;;;;;5020346;28;20092;-69
2021/10/15 12:18:45;;;;;;;11.88;2.40;;;;;;;;;;5050752;28;20157;-70
2021/10/15 12:21:34;;;;;;;11.55;2.58;;;;;;;;;;5034772;28;20056;-69
2021/10/15 12:24:28;;;;;;;7.97;2.35;;;;;;;;;;5050222;28;20579;-69
2021/10/15 12:27:13;;;;;;;12.40;2.63;;;;;;;;;;5050766;28;20060;-69
2021/10/15 12:30:00;;;;;;;12.27;2.63;;;;;;;;;;5032801;28;20056;-69
2021/10/15 12:32:45;;;;;;;14.18;2.78;;;;;;;;;;5045507;28;20053;-69
2021/10/15 12:35:31;;;;;;;13.95;3.50;;;;;;;;;;5049219;28;20060;-69
2021/10/15 12:38:16;;;;;;;13.90;3.10;;;;;;;;;;5050208;28;20830;-69
2021/10/15 12:41:02;;;;;;;8.43;2.65;;;;;;;;;;5048651;28;20592;-69
2021/10/15 12:43:47;;;;;;;8.25;2.95;;;;;;;;;;5035043;28;20044;-69
2021/10/15 12:46:32;;;;;;;350.73;36.15;;;;;;;;;;5048445;28;20080;-69
2021/10/15 12:49:17;;;;;;;9.15;2.20;;;;;;;;;;5049233;28;20064;-69
2021/10/15 12:52:02;;;;;;;7.18;1.88;;;;;;;;;;5035759;28;20559;-69
2021/10/15 12:54:48;;;;;;;9.90;2.72;;;;;;;;;;5054818;28;20495;-69
2021/10/15 12:57:34;;;;;;;120.32;109.32;;;;;;;;;;5057262;28;20056;-70
2021/10/15 13:00:22;;;;;;;33.03;19.35;;;;;;;;;;5059397;28;20194;-70
2021/10/15 13:03:08;;;;;;;8.73;2.22;;;;;;;;;;5056601;28;20456;-70
2021/10/15 13:05:57;;;;;;;13.85;2.63;;;;;;;;;;5056612;28;20051;-70
2021/10/15 13:08:43;;;;;;;10.63;2.15;;;;;;;;;;5057957;28;20041;-70
2021/10/15 13:11:28;;;;;;;10.05;1.73;;;;;;;;;;5048554;28;20499;-70
2021/10/15 13:14:14;;;;;;;29.50;3.35;;;;;;;;;;5041597;28;20403;-70
2021/10/15 13:16:59;;;;;;;13.00;2.58;;;;;;;;;;5056767;28;20063;-70
2021/10/15 13:19:44;;;;;;;10.20;1.88;;;;;;;;;;5059808;28;20053;-70
2021/10/15 13:22:30;;;;;;;7.70;2.13;;;;;;;;;;5057141;28;20049;-70
2021/10/15 13:25:15;;;;;;;11.68;2.15;;;;;;;;;;5035156;28;20135;-70
2021/10/15 13:28:00;;;;;;;9.20;1.85;;;;;;;;;;5033860;28;20083;-70
2021/10/15 13:30:45;;;;;;;11.55;2.08;;;;;;;;;;5050545;28;20470;-70
2021/10/15 13:33:31;;;;;;;23.63;3.17;;;;;;;;;;5049397;28;20060;-70
2021/10/15 13:36:16;;;;;;;9.95;2.33;;;;;;;;;;5049407;28;20128;-70
2021/10/15 13:39:03;;;;;;;11.30;2.55;;;;;;;;;;5049081;28;20069;-70
2021/10/15 13:44:47;;;;;;;8.68;2.25;;;;;;;;;;5055133;28;20053;-70
2021/10/15 13:47:45;;;;;;;12.30;2.65;;;;;;;;;;5057264;28;20052;-70
2021/10/15 13:50:37;;;;;;;12.60;2.78;;;;;;;;;;5056828;28;20085;-70
2021/10/15 13:53:24;;;;;;;11.18;2.05;;;;;;;;;;5055010;28;20060;-70
2021/10/15 13:56:10;;;;;;;12.60;2.40;;;;;;;;;;5038769;28;20064;-70
2021/10/15 13:59:04;;;;;;;11.52;2.10;;;;;;;;;;5052312;28;20073;-70
2021/10/15 14:01:54;;;;;;;5.85;1.50;;;;;;;;;;5053291;28;20060;-70
2021/10/15 14:04:40;;;;;;;12.18;1.60;;;;;;;;;;5051646;28;20053;-69
2021/10/15 14:07:26;;;;;;;11.65;1.80;;;;;;;;;;5054306;28;20068;-70
2021/10/15 14:10:11;;;;;;;4.93;1.27;;;;;;;;;;5042639;28;20115;-69
2021/10/15 14:12:56;;;;;;;8.85;1.10;;;;;;;;;;5058958;28;20056;-69
2021/10/15 14:15:41;;;;;;;7.55;1.13;;;;;;;;;;5060283;28;20049;-69
2021/10/15 14:18:30;;;;;;;9.93;1.20;;;;;;;;;;5057744;28;20123;-68
2021/10/15 14:21:16;;;;;;;5.13;1.08;;;;;;;;;;5060150;28;20056;-68
2021/10/15 14:24:01;;;;;;;6.13;1.20;;;;;;;;;;5054755;28;20053;-71
2021/10/15 14:26:46;;;;;;;11.35;1.50;;;;;;;;;;5051379;28;20049;-69
2021/10/15 14:29:31;;;;;;;7.22;1.10;;;;;;;;;;5052969;28;20503;-68
2021/10/15 14:32:17;;;;;;;8.20;1.38;;;;;;;;;;5051509;28;20056;-68
2021/10/15 14:35:02;;;;;;;6.00;1.02;;;;;;;;;;5036131;28;20052;-68
2021/10/15 14:37:47;;;;;;;11.68;1.55;;;;;;;;;;5050499;28;20056;-68
2021/10/15 14:40:32;;;;;;;7.50;1.25;;;;;;;;;;5051660;28;20057;-69
2021/10/15 14:43:17;;;;;;;7.80;1.50;;;;;;;;;;5050726;28;20053;-67
2021/10/15 14:46:02;;;;;;;9.23;1.27;;;;;;;;;;5035919;28;20049;-67
2021/10/15 14:48:47;;;;;;;19.60;2.78;;;;;;;;;;5050965;28;20053;-67
2021/10/15 14:51:33;;;;;;;10.75;1.65;;;;;;;;;;5052782;28;20079;-68
2021/10/15 14:54:18;;;;;;;12.02;3.88;;;;;;;;;;5051432;28;20057;-68
2021/10/15 14:57:03;;;;;;;37.28;19.13;;;;;;;;;;5057282;28;20433;-67
2021/10/15 14:59:49;;;;;;;9.98;3.95;;;;;;;;;;5050667;28;20091;-67
2021/10/15 15:02:34;;;;;;;6.32;1.13;;;;;;;;;;5052467;28;20048;-67
2021/10/15 15:05:19;;;;;;;7.03;1.50;;;;;;;;;;5050901;28;20538;-67
2021/10/15 15:08:05;;;;;;;7.15;1.88;;;;;;;;;;5036008;28;20053;-67
2021/10/15 15:10:49;;;;;;;15.15;2.30;;;;;;;;;;5052391;28;20495;-67
2021/10/15 15:13:35;;;;;;;11.80;2.75;;;;;;;;;;5050814;28;20053;-68
2021/10/15 15:16:20;;;;;;;17.65;3.17;;;;;;;;;;5052649;28;20052;-67
2021/10/15 15:19:05;;;;;;;11.98;2.35;;;;;;;;;;5052358;28;20457;-67
2021/10/15 15:21:52;;;;;;;9.27;1.58;;;;;;;;;;5051141;28;20120;-67
2021/10/15 15:24:37;;;;;;;12.15;1.85;;;;;;;;;;5052129;28;20057;-67
2021/10/15 15:27:25;;;;;;;9.93;1.48;;;;;;;;;;5050692;28;20088;-68
2021/10/15 15:30:10;;;;;;;10.45;1.77;;;;;;;;;;5051472;28;20057;-67
2021/10/15 15:32:55;;;;;;;28.00;3.10;;;;;;;;;;5052042;28;20052;-67
2021/10/15 15:35:41;;;;;;;20.20;3.55;;;;;;;;;;5050077;28;20511;-67
2021/10/15 15:38:26;;;;;;;13.82;2.10;;;;;;;;;;5051917;28;20048;-67
2021/10/15 15:41:12;;;;;;;9.25;1.65;;;;;;;;;;5050213;28;20048;-68
2021/10/15 15:44:00;;;;;;;5.88;1.35;;;;;;;;;;5035758;28;20045;-67
2021/10/15 15:46:46;;;;;;;13.02;1.70;;;;;;;;;;5051239;28;20052;-68
2021/10/15 15:49:34;;;;;;;12.00;2.58;;;;;;;;;;5049801;28;20499;-67
2021/10/15 15:52:20;;;;;;;6.82;2.20;;;;;;;;;;5050083;28;20499;-67
2021/10/15 15:55:05;;;;;;;9.00;3.33;;;;;;;;;;5049888;28;20052;-66
2021/10/15 15:57:51;;;;;;;11.63;2.72;;;;;;;;;;5035766;28;20499;-67
2021/10/15 16:00:36;;;;;;;11.35;3.53;;;;;;;;;;5051281;28;20077;-67
2021/10/15 16:03:21;;;;;;;20.35;3.72;;;;;;;;;;5051498;28;20053;-68
2021/10/15 16:06:07;;;;;;;6.45;1.80;;;;;;;;;;5045671;28;20049;-67
2021/10/15 16:08:52;;;;;;;8.38;2.33;;;;;;;;;;5048554;28;20091;-69
2021/10/15 16:11:37;;;;;;;19.63;2.67;;;;;;;;;;5033872;28;20446;-67
2021/10/15 16:14:22;;;;;;;14.05;2.80;;;;;;;;;;5036126;28;20061;-70
2021/10/15 16:17:07;;;;;;;11.38;2.03;;;;;;;;;;5045571;28;20045;-67
2021/10/15 16:19:53;;;;;;;11.10;2.20;;;;;;;;;;5033757;28;20487;-67
2021/10/15 16:22:38;;;;;;;10.82;2.33;;;;;;;;;;5035735;28;20103;-68
2021/10/15 16:25:23;;;;;;;86.95;41.42;;;;;;;;;;5048346;28;20045;-67
2021/10/15 16:28:08;;;;;;;123.13;78.25;;;;;;;;;;5033435;28;20131;-68
2021/10/15 16:30:53;;;;;;;119.38;79.50;;;;;;;;;;5051404;28;20053;-67
2021/10/15 16:33:41;;;;;;;397.27;309.50;;;;;;;;;;5049594;28;20088;-67